sensor_id;sensor_type;location;lat;lon;timestamp;P1;durP1;ratioP1;P2;durP2;ratioP2
70199;SDS011;57587;55.688;37.600;2023-02-28T00:02:25;12.38;;;6.43;;
70199;SDS011;57587;55.688;37.600;2023-02-28T00:04:52;10.63;;;6.00;;
70199;SDS011;57587;55.688;37.600;2023-02-28T00:07:30;12.52;;;6.85;;
70199;SDS011;57587;55.688;37.600;2023-02-28T00:09:57;15.70;;;7.00;;
70199;SDS011;57587;55.688;37.600;2023-02-28T00:12:24;12.93;;;6.78;;
70199;SDS011;57587;55.688;37.600;2023-02-28T00:14:51;10.73;;;6.75;;
70199;SDS011;57587;55.688;37.600;2023-02-28T00:17:18;15.45;;;7.75;;
70199;SDS011;57587;55.688;37.600;2023-02-28T00:19:48;14.48;;;7.38;;
70199;SDS011;57587;55.688;37.600;2023-02-28T00:22:19;14.67;;;7.57;;
70199;SDS011;57587;55.688;37.600;2023-02-28T00:24:47;15.02;;;7.63;;
70199;SDS011;57587;55.688;37.600;2023-02-28T00:27:14;14.70;;;7.97;;
70199;SDS011;57587;55.688;37.600;2023-02-28T00:29:41;19.27;;;7.63;;
70199;SDS011;57587;55.688;37.600;2023-02-28T00:32:09;14.45;;;7.30;;
70199;SDS011;57587;55.688;37.600;2023-02-28T00:34:37;16.60;;;8.20;;
70199;SDS011;57587;55.688;37.600;2023-02-28T00:37:08;16.20;;;7.30;;
70199;SDS011;57587;55.688;37.600;2023-02-28T00:39:38;16.25;;;7.53;;
70199;SDS011;57587;55.688;37.600;2023-02-28T00:42:06;16.65;;;7.10;;
70199;SDS011;57587;55.688;37.600;2023-02-28T00:44:33;14.48;;;8.00;;
70199;SDS011;57587;55.688;37.600;2023-02-28T00:47:01;16.17;;;7.73;;
70199;SDS011;57587;55.688;37.600;2023-02-28T00:49:28;17.55;;;8.48;;
70199;SDS011;57587;55.688;37.600;2023-02-28T00:51:55;16.73;;;7.80;;
70199;SDS011;57587;55.688;37.600;2023-02-28T00:54:22;15.68;;;7.63;;
70199;SDS011;57587;55.688;37.600;2023-02-28T00:56:50;14.50;;;7.00;;
70199;SDS011;57587;55.688;37.600;2023-02-28T00:59:17;15.50;;;7.40;;
70199;SDS011;57587;55.688;37.600;2023-02-28T01:01:45;16.20;;;7.60;;
70199;SDS011;57587;55.688;37.600;2023-02-28T01:04:13;14.13;;;7.47;;
70199;SDS011;57587;55.688;37.600;2023-02-28T01:06:41;12.93;;;7.93;;
70199;SDS011;57587;55.688;37.600;2023-02-28T01:09:09;12.48;;;5.97;;
70199;SDS011;57587;55.688;37.600;2023-02-28T01:11:37;13.83;;;6.23;;
70199;SDS011;57587;55.688;37.600;2023-02-28T01:14:05;11.82;;;5.97;;
70199;SDS011;57587;55.688;37.600;2023-02-28T01:16:32;14.70;;;6.05;;
70199;SDS011;57587;55.688;37.600;2023-02-28T01:19:01;12.82;;;5.95;;
70199;SDS011;57587;55.688;37.600;2023-02-28T01:21:28;15.95;;;6.30;;
70199;SDS011;57587;55.688;37.600;2023-02-28T01:23:56;11.57;;;5.97;;
70199;SDS011;57587;55.688;37.600;2023-02-28T01:26:24;14.10;;;6.55;;
70199;SDS011;57587;55.688;37.600;2023-02-28T01:28:51;12.85;;;6.50;;
70199;SDS011;57587;55.688;37.600;2023-02-28T01:31:20;11.30;;;5.85;;
70199;SDS011;57587;55.688;37.600;2023-02-28T01:33:48;11.15;;;5.68;;
70199;SDS011;57587;55.688;37.600;2023-02-28T01:36:23;13.53;;;6.27;;
70199;SDS011;57587;55.688;37.600;2023-02-28T01:38:51;15.25;;;6.57;;
70199;SDS011;57587;55.688;37.600;2023-02-28T01:41:21;12.13;;;6.38;;
70199;SDS011;57587;55.688;37.600;2023-02-28T01:46:21;15.45;;;6.88;;
70199;SDS011;57587;55.688;37.600;2023-02-28T01:48:54;16.57;;;7.10;;
70199;SDS011;57587;55.688;37.600;2023-02-28T01:51:28;12.63;;;6.50;;
70199;SDS011;57587;55.688;37.600;2023-02-28T01:54:05;13.82;;;6.25;;
70199;SDS011;57587;55.688;37.600;2023-02-28T01:56:42;13.60;;;7.03;;
70199;SDS011;57587;55.688;37.600;2023-02-28T01:59:17;15.35;;;6.97;;
70199;SDS011;57587;55.688;37.600;2023-02-28T02:01:58;14.63;;;7.77;;
70199;SDS011;57587;55.688;37.600;2023-02-28T02:04:27;11.38;;;6.28;;
70199;SDS011;57587;55.688;37.600;2023-02-28T02:07:02;12.30;;;6.53;;
70199;SDS011;57587;55.688;37.600;2023-02-28T02:09:30;11.73;;;6.40;;
70199;SDS011;57587;55.688;37.600;2023-02-28T02:11:57;10.50;;;6.10;;
70199;SDS011;57587;55.688;37.600;2023-02-28T02:25:42;10.27;;;5.90;;
70199;SDS011;57587;55.688;37.600;2023-02-28T02:36:45;10.20;;;5.55;;
70199;SDS011;57587;55.688;37.600;2023-02-28T02:39:19;11.05;;;6.13;;
70199;SDS011;57587;55.688;37.600;2023-02-28T02:41:57;9.30;;;5.93;;
70199;SDS011;57587;55.688;37.600;2023-02-28T02:47:08;11.38;;;6.07;;
70199;SDS011;57587;55.688;37.600;2023-02-28T02:49:39;12.57;;;6.50;;
70199;SDS011;57587;55.688;37.600;2023-02-28T02:52:13;11.80;;;5.80;;
70199;SDS011;57587;55.688;37.600;2023-02-28T02:54:44;10.43;;;5.80;;
70199;SDS011;57587;55.688;37.600;2023-02-28T02:57:17;10.32;;;5.35;;
70199;SDS011;57587;55.688;37.600;2023-02-28T02:59:50;10.13;;;5.68;;
70199;SDS011;57587;55.688;37.600;2023-02-28T03:02:20;13.30;;;6.18;;
70199;SDS011;57587;55.688;37.600;2023-02-28T03:04:50;13.98;;;6.00;;
70199;SDS011;57587;55.688;37.600;2023-02-28T03:07:20;9.93;;;5.83;;
70199;SDS011;57587;55.688;37.600;2023-02-28T03:09:55;10.50;;;5.60;;
70199;SDS011;57587;55.688;37.600;2023-02-28T03:12:24;9.38;;;5.40;;
70199;SDS011;57587;55.688;37.600;2023-02-28T03:17:53;9.32;;;5.45;;
70199;SDS011;57587;55.688;37.600;2023-02-28T03:23:13;9.88;;;5.20;;
70199;SDS011;57587;55.688;37.600;2023-02-28T03:28:41;9.98;;;5.70;;
70199;SDS011;57587;55.688;37.600;2023-02-28T03:31:16;6.05;;;3.80;;
70199;SDS011;57587;55.688;37.600;2023-02-28T03:34:03;9.70;;;5.27;;
70199;SDS011;57587;55.688;37.600;2023-02-28T03:36:37;10.93;;;5.35;;
70199;SDS011;57587;55.688;37.600;2023-02-28T03:39:14;7.93;;;4.78;;
70199;SDS011;57587;55.688;37.600;2023-02-28T03:41:46;7.50;;;4.68;;
70199;SDS011;57587;55.688;37.600;2023-02-28T03:44:21;10.07;;;5.35;;
70199;SDS011;57587;55.688;37.600;2023-02-28T03:46:58;8.80;;;5.17;;
70199;SDS011;57587;55.688;37.600;2023-02-28T03:49:31;9.25;;;5.22;;
70199;SDS011;57587;55.688;37.600;2023-02-28T03:52:02;10.68;;;4.95;;
70199;SDS011;57587;55.688;37.600;2023-02-28T03:54:35;7.63;;;4.57;;
70199;SDS011;57587;55.688;37.600;2023-02-28T03:57:13;10.35;;;5.35;;
70199;SDS011;57587;55.688;37.600;2023-02-28T03:59:54;11.23;;;4.70;;
70199;SDS011;57587;55.688;37.600;2023-02-28T04:02:43;7.53;;;3.97;;
70199;SDS011;57587;55.688;37.600;2023-02-28T04:05:10;8.13;;;4.35;;
70199;SDS011;57587;55.688;37.600;2023-02-28T04:07:37;6.85;;;4.60;;
70199;SDS011;57587;55.688;37.600;2023-02-28T04:10:04;7.18;;;4.60;;
70199;SDS011;57587;55.688;37.600;2023-02-28T04:12:33;8.10;;;4.50;;
70199;SDS011;57587;55.688;37.600;2023-02-28T04:15:00;9.30;;;5.00;;
70199;SDS011;57587;55.688;37.600;2023-02-28T04:17:28;8.27;;;4.53;;
70199;SDS011;57587;55.688;37.600;2023-02-28T04:19:55;8.25;;;4.65;;
70199;SDS011;57587;55.688;37.600;2023-02-28T04:22:23;8.63;;;5.85;;
70199;SDS011;57587;55.688;37.600;2023-02-28T04:24:52;8.57;;;4.90;;
70199;SDS011;57587;55.688;37.600;2023-02-28T04:27:21;8.68;;;4.50;;
70199;SDS011;57587;55.688;37.600;2023-02-28T04:29:48;10.00;;;4.85;;
70199;SDS011;57587;55.688;37.600;2023-02-28T04:32:15;9.07;;;4.55;;
70199;SDS011;57587;55.688;37.600;2023-02-28T04:34:42;8.48;;;5.07;;
70199;SDS011;57587;55.688;37.600;2023-02-28T04:37:09;6.33;;;4.10;;
70199;SDS011;57587;55.688;37.600;2023-02-28T04:39:39;7.72;;;4.25;;
70199;SDS011;57587;55.688;37.600;2023-02-28T04:42:08;7.63;;;4.57;;
70199;SDS011;57587;55.688;37.600;2023-02-28T04:44:35;7.60;;;4.60;;
70199;SDS011;57587;55.688;37.600;2023-02-28T04:47:02;7.05;;;4.22;;
70199;SDS011;57587;55.688;37.600;2023-02-28T04:49:29;7.60;;;4.27;;
70199;SDS011;57587;55.688;37.600;2023-02-28T04:51:56;8.10;;;4.70;;
70199;SDS011;57587;55.688;37.600;2023-02-28T04:54:23;6.55;;;4.75;;
70199;SDS011;57587;55.688;37.600;2023-02-28T04:56:50;7.68;;;4.15;;
70199;SDS011;57587;55.688;37.600;2023-02-28T04:59:17;9.93;;;5.10;;
70199;SDS011;57587;55.688;37.600;2023-02-28T05:01:45;7.03;;;4.70;;
70199;SDS011;57587;55.688;37.600;2023-02-28T05:04:14;7.00;;;4.40;;
70199;SDS011;57587;55.688;37.600;2023-02-28T05:06:41;8.95;;;4.72;;
70199;SDS011;57587;55.688;37.600;2023-02-28T05:09:08;6.25;;;3.80;;
70199;SDS011;57587;55.688;37.600;2023-02-28T05:11:38;7.32;;;4.47;;
70199;SDS011;57587;55.688;37.600;2023-02-28T05:14:09;7.47;;;4.33;;
70199;SDS011;57587;55.688;37.600;2023-02-28T05:16:39;6.53;;;4.13;;
70199;SDS011;57587;55.688;37.600;2023-02-28T05:19:06;7.40;;;4.95;;
70199;SDS011;57587;55.688;37.600;2023-02-28T05:21:34;7.80;;;4.80;;
70199;SDS011;57587;55.688;37.600;2023-02-28T05:24:09;8.48;;;5.20;;
70199;SDS011;57587;55.688;37.600;2023-02-28T05:26:38;7.57;;;4.03;;
70199;SDS011;57587;55.688;37.600;2023-02-28T05:29:07;5.72;;;3.75;;
70199;SDS011;57587;55.688;37.600;2023-02-28T05:31:36;7.15;;;4.35;;
70199;SDS011;57587;55.688;37.600;2023-02-28T05:34:03;7.85;;;5.00;;
70199;SDS011;57587;55.688;37.600;2023-02-28T05:36:31;6.50;;;3.90;;
70199;SDS011;57587;55.688;37.600;2023-02-28T05:38:58;7.63;;;4.73;;
70199;SDS011;57587;55.688;37.600;2023-02-28T05:41:25;7.80;;;4.55;;
70199;SDS011;57587;55.688;37.600;2023-02-28T05:43:53;6.78;;;4.43;;
70199;SDS011;57587;55.688;37.600;2023-02-28T05:46:20;6.78;;;4.53;;
70199;SDS011;57587;55.688;37.600;2023-02-28T05:48:47;7.15;;;5.32;;
70199;SDS011;57587;55.688;37.600;2023-02-28T05:51:16;6.90;;;5.00;;
70199;SDS011;57587;55.688;37.600;2023-02-28T05:53:44;7.82;;;5.40;;
70199;SDS011;57587;55.688;37.600;2023-02-28T05:56:11;6.57;;;5.32;;
70199;SDS011;57587;55.688;37.600;2023-02-28T05:58:38;7.47;;;5.40;;
70199;SDS011;57587;55.688;37.600;2023-02-28T06:01:47;8.00;;;5.38;;
70199;SDS011;57587;55.688;37.600;2023-02-28T06:04:00;6.60;;;5.43;;
70199;SDS011;57587;55.688;37.600;2023-02-28T06:06:29;9.02;;;6.00;;
70199;SDS011;57587;55.688;37.600;2023-02-28T06:08:57;7.10;;;5.95;;
70199;SDS011;57587;55.688;37.600;2023-02-28T06:11:24;9.50;;;6.90;;
70199;SDS011;57587;55.688;37.600;2023-02-28T06:13:55;8.35;;;6.32;;
70199;SDS011;57587;55.688;37.600;2023-02-28T06:16:23;6.97;;;5.20;;
70199;SDS011;57587;55.688;37.600;2023-02-28T06:18:51;7.10;;;6.40;;
70199;SDS011;57587;55.688;37.600;2023-02-28T06:21:22;9.10;;;7.05;;
70199;SDS011;57587;55.688;37.600;2023-02-28T06:23:50;6.75;;;5.60;;
70199;SDS011;57587;55.688;37.600;2023-02-28T06:26:17;9.35;;;7.55;;
70199;SDS011;57587;55.688;37.600;2023-02-28T06:28:44;9.30;;;7.70;;
70199;SDS011;57587;55.688;37.600;2023-02-28T06:31:12;8.20;;;7.13;;
70199;SDS011;57587;55.688;37.600;2023-02-28T06:33:41;7.78;;;6.20;;
70199;SDS011;57587;55.688;37.600;2023-02-28T06:36:09;8.15;;;6.30;;
70199;SDS011;57587;55.688;37.600;2023-02-28T06:38:37;7.85;;;7.05;;
70199;SDS011;57587;55.688;37.600;2023-02-28T06:41:04;8.43;;;6.97;;
70199;SDS011;57587;55.688;37.600;2023-02-28T06:43:37;9.30;;;7.70;;
70199;SDS011;57587;55.688;37.600;2023-02-28T06:46:06;7.07;;;4.90;;
70199;SDS011;57587;55.688;37.600;2023-02-28T06:48:34;7.65;;;5.10;;
70199;SDS011;57587;55.688;37.600;2023-02-28T06:51:06;8.10;;;4.78;;
70199;SDS011;57587;55.688;37.600;2023-02-28T06:53:36;8.80;;;4.60;;
70199;SDS011;57587;55.688;37.600;2023-02-28T06:56:04;7.47;;;4.55;;
70199;SDS011;57587;55.688;37.600;2023-02-28T06:58:35;9.57;;;5.70;;
70199;SDS011;57587;55.688;37.600;2023-02-28T07:01:04;6.43;;;5.00;;
70199;SDS011;57587;55.688;37.600;2023-02-28T07:03:36;7.03;;;4.80;;
70199;SDS011;57587;55.688;37.600;2023-02-28T07:06:10;6.60;;;5.00;;
70199;SDS011;57587;55.688;37.600;2023-02-28T07:08:37;7.95;;;5.55;;
70199;SDS011;57587;55.688;37.600;2023-02-28T07:11:06;8.00;;;4.70;;
70199;SDS011;57587;55.688;37.600;2023-02-28T07:13:33;7.85;;;5.22;;
70199;SDS011;57587;55.688;37.600;2023-02-28T07:16:04;10.25;;;5.18;;
70199;SDS011;57587;55.688;37.600;2023-02-28T07:18:33;8.23;;;5.07;;
70199;SDS011;57587;55.688;37.600;2023-02-28T07:21:04;8.48;;;5.00;;
70199;SDS011;57587;55.688;37.600;2023-02-28T07:23:33;7.47;;;4.70;;
70199;SDS011;57587;55.688;37.600;2023-02-28T07:26:00;7.75;;;4.70;;
70199;SDS011;57587;55.688;37.600;2023-02-28T07:28:28;7.75;;;5.05;;
70199;SDS011;57587;55.688;37.600;2023-02-28T07:30:55;8.17;;;4.73;;
70199;SDS011;57587;55.688;37.600;2023-02-28T07:33:22;7.90;;;5.18;;
70199;SDS011;57587;55.688;37.600;2023-02-28T07:35:50;7.38;;;4.70;;
70199;SDS011;57587;55.688;37.600;2023-02-28T07:38:17;8.52;;;5.00;;
70199;SDS011;57587;55.688;37.600;2023-02-28T07:40:45;9.30;;;5.15;;
70199;SDS011;57587;55.688;37.600;2023-02-28T07:43:12;6.63;;;4.23;;
70199;SDS011;57587;55.688;37.600;2023-02-28T07:45:39;10.68;;;5.07;;
70199;SDS011;57587;55.688;37.600;2023-02-28T07:48:06;6.63;;;4.88;;
70199;SDS011;57587;55.688;37.600;2023-02-28T07:50:33;7.53;;;4.88;;
70199;SDS011;57587;55.688;37.600;2023-02-28T07:53:01;7.03;;;4.40;;
70199;SDS011;57587;55.688;37.600;2023-02-28T07:55:28;8.80;;;5.00;;
70199;SDS011;57587;55.688;37.600;2023-02-28T07:57:56;8.40;;;4.97;;
70199;SDS011;57587;55.688;37.600;2023-02-28T08:00:24;9.85;;;7.25;;
70199;SDS011;57587;55.688;37.600;2023-02-28T08:02:51;7.45;;;4.90;;
70199;SDS011;57587;55.688;37.600;2023-02-28T08:05:18;8.32;;;4.60;;
70199;SDS011;57587;55.688;37.600;2023-02-28T08:07:48;8.07;;;4.67;;
70199;SDS011;57587;55.688;37.600;2023-02-28T08:10:16;7.78;;;4.47;;
70199;SDS011;57587;55.688;37.600;2023-02-28T08:12:43;7.80;;;5.70;;
70199;SDS011;57587;55.688;37.600;2023-02-28T08:15:10;9.13;;;5.68;;
70199;SDS011;57587;55.688;37.600;2023-02-28T08:17:38;8.20;;;5.15;;
70199;SDS011;57587;55.688;37.600;2023-02-28T08:20:05;7.07;;;4.40;;
70199;SDS011;57587;55.688;37.600;2023-02-28T08:22:33;9.30;;;5.60;;
70199;SDS011;57587;55.688;37.600;2023-02-28T08:25:00;7.38;;;5.10;;
70199;SDS011;57587;55.688;37.600;2023-02-28T08:27:28;9.00;;;4.88;;
70199;SDS011;57587;55.688;37.600;2023-02-28T08:29:55;7.40;;;5.10;;
70199;SDS011;57587;55.688;37.600;2023-02-28T08:32:22;9.83;;;4.93;;
70199;SDS011;57587;55.688;37.600;2023-02-28T08:34:55;7.70;;;4.72;;
70199;SDS011;57587;55.688;37.600;2023-02-28T08:37:23;8.05;;;4.80;;
70199;SDS011;57587;55.688;37.600;2023-02-28T08:39:50;8.57;;;5.28;;
70199;SDS011;57587;55.688;37.600;2023-02-28T08:42:21;8.88;;;5.05;;
70199;SDS011;57587;55.688;37.600;2023-02-28T08:44:48;9.73;;;4.23;;
70199;SDS011;57587;55.688;37.600;2023-02-28T08:47:15;7.97;;;4.45;;
70199;SDS011;57587;55.688;37.600;2023-02-28T08:49:42;9.57;;;5.10;;
70199;SDS011;57587;55.688;37.600;2023-02-28T08:52:09;7.22;;;4.53;;
70199;SDS011;57587;55.688;37.600;2023-02-28T08:54:37;9.02;;;5.30;;
70199;SDS011;57587;55.688;37.600;2023-02-28T08:57:04;9.13;;;5.30;;
70199;SDS011;57587;55.688;37.600;2023-02-28T08:59:31;7.80;;;5.05;;
70199;SDS011;57587;55.688;37.600;2023-02-28T09:01:59;8.52;;;5.50;;
70199;SDS011;57587;55.688;37.600;2023-02-28T09:04:26;9.07;;;4.97;;
70199;SDS011;57587;55.688;37.600;2023-02-28T09:06:53;9.13;;;4.95;;
70199;SDS011;57587;55.688;37.600;2023-02-28T09:09:20;7.80;;;4.23;;
70199;SDS011;57587;55.688;37.600;2023-02-28T09:11:47;9.35;;;4.88;;
70199;SDS011;57587;55.688;37.600;2023-02-28T09:14:14;11.30;;;5.90;;
70199;SDS011;57587;55.688;37.600;2023-02-28T09:16:44;8.77;;;4.53;;
70199;SDS011;57587;55.688;37.600;2023-02-28T09:19:11;10.18;;;5.40;;
70199;SDS011;57587;55.688;37.600;2023-02-28T09:21:39;8.43;;;4.80;;
70199;SDS011;57587;55.688;37.600;2023-02-28T09:24:06;9.55;;;4.78;;
70199;SDS011;57587;55.688;37.600;2023-02-28T09:26:34;9.65;;;4.70;;
70199;SDS011;57587;55.688;37.600;2023-02-28T09:29:17;7.53;;;4.55;;
70199;SDS011;57587;55.688;37.600;2023-02-28T09:31:44;10.32;;;5.18;;
70199;SDS011;57587;55.688;37.600;2023-02-28T09:34:11;7.67;;;4.20;;
70199;SDS011;57587;55.688;37.600;2023-02-28T09:36:39;6.93;;;4.07;;
70199;SDS011;57587;55.688;37.600;2023-02-28T09:39:12;7.28;;;4.40;;
70199;SDS011;57587;55.688;37.600;2023-02-28T09:41:45;10.20;;;4.60;;
70199;SDS011;57587;55.688;37.600;2023-02-28T09:50:23;8.10;;;3.78;;
70199;SDS011;57587;55.688;37.600;2023-02-28T09:53:03;9.73;;;4.38;;
70199;SDS011;57587;55.688;37.600;2023-02-28T09:55:42;8.20;;;4.53;;
70199;SDS011;57587;55.688;37.600;2023-02-28T09:58:16;6.90;;;4.97;;
70199;SDS011;57587;55.688;37.600;2023-02-28T10:00:54;8.87;;;4.63;;
70199;SDS011;57587;55.688;37.600;2023-02-28T10:03:36;8.65;;;3.92;;
70199;SDS011;57587;55.688;37.600;2023-02-28T10:06:13;8.35;;;4.60;;
70199;SDS011;57587;55.688;37.600;2023-02-28T10:08:52;7.72;;;4.53;;
70199;SDS011;57587;55.688;37.600;2023-02-28T10:11:26;6.45;;;4.63;;
70199;SDS011;57587;55.688;37.600;2023-02-28T10:16:31;5.47;;;4.10;;
70199;SDS011;57587;55.688;37.600;2023-02-28T10:19:04;7.40;;;5.00;;
70199;SDS011;57587;55.688;37.600;2023-02-28T10:21:41;8.00;;;4.38;;
70199;SDS011;57587;55.688;37.600;2023-02-28T10:24:20;6.97;;;4.18;;
70199;SDS011;57587;55.688;37.600;2023-02-28T10:26:56;8.07;;;4.67;;
70199;SDS011;57587;55.688;37.600;2023-02-28T10:29:38;7.22;;;4.30;;
70199;SDS011;57587;55.688;37.600;2023-02-28T10:32:08;6.32;;;4.47;;
70199;SDS011;57587;55.688;37.600;2023-02-28T10:34:41;7.20;;;4.32;;
70199;SDS011;57587;55.688;37.600;2023-02-28T10:37:08;7.15;;;5.28;;
70199;SDS011;57587;55.688;37.600;2023-02-28T10:39:39;6.10;;;4.10;;
70199;SDS011;57587;55.688;37.600;2023-02-28T10:42:22;7.63;;;4.50;;
70199;SDS011;57587;55.688;37.600;2023-02-28T10:45:13;6.85;;;4.20;;
70199;SDS011;57587;55.688;37.600;2023-02-28T10:52:54;7.47;;;4.00;;
70199;SDS011;57587;55.688;37.600;2023-02-28T10:55:22;6.85;;;4.47;;
70199;SDS011;57587;55.688;37.600;2023-02-28T10:57:52;8.65;;;4.00;;
70199;SDS011;57587;55.688;37.600;2023-02-28T11:00:20;8.20;;;4.97;;
70199;SDS011;57587;55.688;37.600;2023-02-28T11:02:51;6.80;;;4.68;;
70199;SDS011;57587;55.688;37.600;2023-02-28T11:05:29;8.60;;;4.70;;
70199;SDS011;57587;55.688;37.600;2023-02-28T11:10:37;8.60;;;4.95;;
70199;SDS011;57587;55.688;37.600;2023-02-28T11:13:05;7.82;;;4.30;;
70199;SDS011;57587;55.688;37.600;2023-02-28T11:15:33;8.27;;;4.93;;
70199;SDS011;57587;55.688;37.600;2023-02-28T11:18:02;11.20;;;4.40;;
70199;SDS011;57587;55.688;37.600;2023-02-28T11:20:33;9.73;;;4.60;;
70199;SDS011;57587;55.688;37.600;2023-02-28T11:23:02;8.32;;;5.07;;
70199;SDS011;57587;55.688;37.600;2023-02-28T11:25:35;6.57;;;4.20;;
70199;SDS011;57587;55.688;37.600;2023-02-28T11:28:05;8.52;;;4.63;;
70199;SDS011;57587;55.688;37.600;2023-02-28T11:31:01;7.03;;;4.13;;
70199;SDS011;57587;55.688;37.600;2023-02-28T11:33:31;7.90;;;4.32;;
70199;SDS011;57587;55.688;37.600;2023-02-28T11:36:04;6.80;;;4.25;;
70199;SDS011;57587;55.688;37.600;2023-02-28T11:38:37;8.77;;;4.80;;
70199;SDS011;57587;55.688;37.600;2023-02-28T11:41:08;8.93;;;4.63;;
70199;SDS011;57587;55.688;37.600;2023-02-28T11:46:25;6.70;;;4.68;;
70199;SDS011;57587;55.688;37.600;2023-02-28T12:06:27;7.20;;;4.28;;
70199;SDS011;57587;55.688;37.600;2023-02-28T12:12:41;6.67;;;4.40;;
70199;SDS011;57587;55.688;37.600;2023-02-28T12:17:51;7.20;;;4.35;;
70199;SDS011;57587;55.688;37.600;2023-02-28T12:20:27;8.30;;;4.82;;
70199;SDS011;57587;55.688;37.600;2023-02-28T12:26:27;8.80;;;4.90;;
70199;SDS011;57587;55.688;37.600;2023-02-28T12:29:00;6.63;;;4.30;;
70199;SDS011;57587;55.688;37.600;2023-02-28T12:31:36;10.00;;;5.20;;
70199;SDS011;57587;55.688;37.600;2023-02-28T12:40:10;7.63;;;4.50;;
70199;SDS011;57587;55.688;37.600;2023-02-28T12:42:45;10.18;;;4.90;;
70199;SDS011;57587;55.688;37.600;2023-02-28T12:47:46;7.88;;;4.63;;
70199;SDS011;57587;55.688;37.600;2023-02-28T12:50:19;7.90;;;4.65;;
70199;SDS011;57587;55.688;37.600;2023-02-28T12:55:35;7.10;;;4.38;;
70199;SDS011;57587;55.688;37.600;2023-02-28T13:11:46;7.32;;;4.05;;
70199;SDS011;57587;55.688;37.600;2023-02-28T13:16:56;8.63;;;4.60;;
70199;SDS011;57587;55.688;37.600;2023-02-28T13:19:29;7.27;;;4.43;;
70199;SDS011;57587;55.688;37.600;2023-02-28T13:21:58;6.57;;;4.40;;
70199;SDS011;57587;55.688;37.600;2023-02-28T13:24:37;7.28;;;4.15;;
70199;SDS011;57587;55.688;37.600;2023-02-28T13:27:11;8.27;;;4.40;;
70199;SDS011;57587;55.688;37.600;2023-02-28T13:29:42;8.75;;;4.38;;
70199;SDS011;57587;55.688;37.600;2023-02-28T13:34:42;7.82;;;3.88;;
70199;SDS011;57587;55.688;37.600;2023-02-28T13:37:35;7.28;;;4.00;;
70199;SDS011;57587;55.688;37.600;2023-02-28T13:42:48;7.50;;;4.28;;
70199;SDS011;57587;55.688;37.600;2023-02-28T13:45:21;7.73;;;4.07;;
70199;SDS011;57587;55.688;37.600;2023-02-28T13:47:53;8.07;;;4.22;;
70199;SDS011;57587;55.688;37.600;2023-02-28T13:58:27;7.17;;;4.33;;
70199;SDS011;57587;55.688;37.600;2023-02-28T14:06:47;7.20;;;4.53;;
70199;SDS011;57587;55.688;37.600;2023-02-28T14:11:50;8.20;;;4.83;;
70199;SDS011;57587;55.688;37.600;2023-02-28T14:17:07;9.75;;;4.60;;
70199;SDS011;57587;55.688;37.600;2023-02-28T14:19:40;9.25;;;4.88;;
70199;SDS011;57587;55.688;37.600;2023-02-28T14:27:47;9.55;;;4.32;;
70199;SDS011;57587;55.688;37.600;2023-02-28T14:39:01;11.83;;;5.00;;
70199;SDS011;57587;55.688;37.600;2023-02-28T14:41:34;6.32;;;3.75;;
70199;SDS011;57587;55.688;37.600;2023-02-28T14:44:14;7.03;;;4.78;;
70199;SDS011;57587;55.688;37.600;2023-02-28T14:46:47;7.18;;;3.95;;
70199;SDS011;57587;55.688;37.600;2023-02-28T14:49:19;8.52;;;4.45;;
70199;SDS011;57587;55.688;37.600;2023-02-28T14:51:49;5.27;;;3.63;;
70199;SDS011;57587;55.688;37.600;2023-02-28T14:54:28;8.35;;;4.25;;
70199;SDS011;57587;55.688;37.600;2023-02-28T14:56:55;6.55;;;4.13;;
70199;SDS011;57587;55.688;37.600;2023-02-28T14:59:30;7.15;;;4.47;;
70199;SDS011;57587;55.688;37.600;2023-02-28T15:02:21;8.38;;;4.43;;
70199;SDS011;57587;55.688;37.600;2023-02-28T15:04:55;7.43;;;4.20;;
70199;SDS011;57587;55.688;37.600;2023-02-28T15:07:28;6.53;;;4.60;;
70199;SDS011;57587;55.688;37.600;2023-02-28T15:10:13;8.20;;;4.50;;
70199;SDS011;57587;55.688;37.600;2023-02-28T15:15:22;7.07;;;4.45;;
70199;SDS011;57587;55.688;37.600;2023-02-28T15:18:06;6.87;;;4.30;;
70199;SDS011;57587;55.688;37.600;2023-02-28T15:20:38;7.60;;;4.50;;
70199;SDS011;57587;55.688;37.600;2023-02-28T15:23:07;7.07;;;4.32;;
70199;SDS011;57587;55.688;37.600;2023-02-28T15:25:36;6.80;;;3.95;;
70199;SDS011;57587;55.688;37.600;2023-02-28T15:28:04;6.95;;;4.03;;
70199;SDS011;57587;55.688;37.600;2023-02-28T15:30:31;7.07;;;4.10;;
70199;SDS011;57587;55.688;37.600;2023-02-28T15:33:47;5.78;;;3.58;;
70199;SDS011;57587;55.688;37.600;2023-02-28T15:35:51;8.57;;;4.30;;
70199;SDS011;57587;55.688;37.600;2023-02-28T15:38:33;8.35;;;4.18;;
70199;SDS011;57587;55.688;37.600;2023-02-28T15:41:02;8.23;;;4.25;;
70199;SDS011;57587;55.688;37.600;2023-02-28T15:43:36;6.57;;;3.70;;
70199;SDS011;57587;55.688;37.600;2023-02-28T15:46:05;8.00;;;3.83;;
70199;SDS011;57587;55.688;37.600;2023-02-28T15:51:18;7.07;;;4.35;;
70199;SDS011;57587;55.688;37.600;2023-02-28T15:54:00;8.13;;;2.97;;
70199;SDS011;57587;55.688;37.600;2023-02-28T15:56:39;6.40;;;3.37;;
70199;SDS011;57587;55.688;37.600;2023-02-28T15:59:18;5.45;;;3.80;;
70199;SDS011;57587;55.688;37.600;2023-02-28T16:02:35;6.68;;;3.90;;
70199;SDS011;57587;55.688;37.600;2023-02-28T16:04:37;6.90;;;4.05;;
70199;SDS011;57587;55.688;37.600;2023-02-28T16:07:23;5.13;;;3.40;;
70199;SDS011;57587;55.688;37.600;2023-02-28T16:09:51;6.53;;;3.80;;
70199;SDS011;57587;55.688;37.600;2023-02-28T16:12:20;7.97;;;4.20;;
70199;SDS011;57587;55.688;37.600;2023-02-28T16:14:51;6.95;;;3.97;;
70199;SDS011;57587;55.688;37.600;2023-02-28T16:17:20;7.45;;;4.65;;
70199;SDS011;57587;55.688;37.600;2023-02-28T16:19:49;6.75;;;4.22;;
70199;SDS011;57587;55.688;37.600;2023-02-28T16:22:17;6.07;;;3.87;;
70199;SDS011;57587;55.688;37.600;2023-02-28T16:24:44;5.65;;;3.78;;
70199;SDS011;57587;55.688;37.600;2023-02-28T16:27:14;6.40;;;3.80;;
70199;SDS011;57587;55.688;37.600;2023-02-28T16:29:43;5.95;;;3.60;;
70199;SDS011;57587;55.688;37.600;2023-02-28T16:32:12;6.53;;;3.80;;
70199;SDS011;57587;55.688;37.600;2023-02-28T16:34:42;6.10;;;3.50;;
70199;SDS011;57587;55.688;37.600;2023-02-28T16:37:14;6.63;;;3.70;;
70199;SDS011;57587;55.688;37.600;2023-02-28T16:39:43;5.90;;;3.63;;
70199;SDS011;57587;55.688;37.600;2023-02-28T16:42:15;4.82;;;2.92;;
70199;SDS011;57587;55.688;37.600;2023-02-28T16:44:49;6.05;;;3.53;;
70199;SDS011;57587;55.688;37.600;2023-02-28T16:47:16;5.90;;;3.27;;
70199;SDS011;57587;55.688;37.600;2023-02-28T16:49:43;6.05;;;3.90;;
70199;SDS011;57587;55.688;37.600;2023-02-28T16:52:11;6.43;;;4.00;;
70199;SDS011;57587;55.688;37.600;2023-02-28T16:54:41;6.78;;;4.07;;
70199;SDS011;57587;55.688;37.600;2023-02-28T16:57:16;7.70;;;3.53;;
70199;SDS011;57587;55.688;37.600;2023-02-28T16:59:48;7.07;;;3.67;;
70199;SDS011;57587;55.688;37.600;2023-02-28T17:02:18;5.15;;;3.35;;
70199;SDS011;57587;55.688;37.600;2023-02-28T17:04:46;4.80;;;3.25;;
70199;SDS011;57587;55.688;37.600;2023-02-28T17:07:14;5.35;;;3.70;;
70199;SDS011;57587;55.688;37.600;2023-02-28T17:09:43;6.07;;;3.30;;
70199;SDS011;57587;55.688;37.600;2023-02-28T17:12:12;6.27;;;3.10;;
70199;SDS011;57587;55.688;37.600;2023-02-28T17:14:39;4.72;;;3.35;;
70199;SDS011;57587;55.688;37.600;2023-02-28T17:17:07;5.30;;;3.38;;
70199;SDS011;57587;55.688;37.600;2023-02-28T17:19:36;5.47;;;3.38;;
70199;SDS011;57587;55.688;37.600;2023-02-28T17:22:04;6.53;;;3.35;;
70199;SDS011;57587;55.688;37.600;2023-02-28T17:24:31;4.97;;;3.30;;